Spetsai, Greece
Current Conditions -  °F | °C
As of 4:20 AM on Thursday 23 Oct 2014 (Local Time) from LGEL Reporting Station
Broken Clouds Broken Clouds  
Wind Chill: 72°   Ceiling: 7000
Heat Index: 72°   Visibility: 6mi
Dew Point: 63°   Wind: 14mph
Humidity: 73%   Direction: 150°SSE
Pressure: 29.53"   Gusts: 25mph
Location:  37.27°N, 23.15°E
Report Text: LGEL 230220Z 15012G22KT 9999 FEW025 BKN070 22/17 Q1000
Loading
Personal Weather Stations






























Interactive Weather Map
Tropical Storm Tracking
New forecast layout! Learn more

10-Day Weather Forecast

Advertisements
Track Severe Weather on mobile